createdAt,value
2022-12-09T00:00:12.955Z,18.33
2022-12-09T00:02:40.278Z,18.17
2022-12-09T00:05:07.458Z,13.38
2022-12-09T00:07:37.450Z,12.63
2022-12-09T00:10:05.654Z,16.53
2022-12-09T00:12:39.734Z,16.50
2022-12-09T00:15:07.206Z,18.60
2022-12-09T00:17:34.359Z,15.25
2022-12-09T00:20:01.603Z,16.73
2022-12-09T00:22:28.881Z,16.30
2022-12-09T00:24:55.919Z,14.57
2022-12-09T00:30:10.185Z,11.73
2022-12-09T00:32:37.366Z,11.75
2022-12-09T00:35:04.823Z,14.93
2022-12-09T00:37:31.939Z,18.58
2022-12-09T00:39:58.849Z,14.43
2022-12-09T00:44:58.218Z,15.95
2022-12-09T00:47:25.233Z,17.92
2022-12-09T00:49:52.167Z,15.85
2022-12-09T00:52:19.656Z,15.25
2022-12-09T00:54:46.595Z,13.65
2022-12-09T00:57:13.296Z,15.60
2022-12-09T00:59:40.167Z,15.90
2022-12-09T01:02:07.063Z,16.77
2022-12-09T01:04:33.965Z,18.38
2022-12-09T01:07:01.013Z,23.60
2022-12-09T01:09:28.077Z,13.55
2022-12-09T01:11:54.868Z,12.98
2022-12-09T01:14:23.003Z,20.52
2022-12-09T01:16:50.039Z,15.85
2022-12-09T01:19:16.896Z,19.63
2022-12-09T01:21:43.728Z,16.05
2022-12-09T01:24:11.574Z,16.90
2022-12-09T01:26:38.640Z,14.85
2022-12-09T01:29:05.771Z,15.02
2022-12-09T01:31:32.612Z,14.88
2022-12-09T01:33:59.977Z,15.15
2022-12-09T01:36:29.471Z,13.93
2022-12-09T01:38:58.404Z,16.75
2022-12-09T01:41:25.690Z,16.42
2022-12-09T01:44:16.979Z,14.98
2022-12-09T01:46:44.454Z,15.52
2022-12-09T01:49:17.740Z,14.73
2022-12-09T01:51:46.957Z,14.43
2022-12-09T01:54:17.679Z,20.95
2022-12-09T01:56:44.385Z,14.93
2022-12-09T02:01:51.920Z,17.67
2022-12-09T02:04:18.902Z,12.73
2022-12-09T02:06:45.925Z,11.00
2022-12-09T02:12:12.406Z,15.85
2022-12-09T02:17:44.603Z,13.38
2022-12-09T02:20:36.677Z,12.95
2022-12-09T02:23:09.474Z,14.98
2022-12-09T02:25:45.917Z,18.50
2022-12-09T02:28:43.197Z,18.00
2022-12-09T02:31:27.335Z,16.48
2022-12-09T02:34:21.232Z,15.55
2022-12-09T02:36:55.828Z,18.80
2022-12-09T02:39:45.782Z,14.35
2022-12-09T02:42:18.692Z,19.60
2022-12-09T02:55:57.151Z,17.25
2022-12-09T02:58:24.199Z,23.20
2022-12-09T03:00:52.297Z,17.58
2022-12-09T03:03:19.559Z,15.02
2022-12-09T03:17:34.062Z,21.42
2022-12-09T03:20:06.724Z,15.77
2022-12-09T03:22:35.600Z,17.88
2022-12-09T03:25:10.951Z,14.45
2022-12-09T03:27:40.745Z,16.40
2022-12-09T03:30:10.064Z,16.50
2022-12-09T03:41:22.523Z,16.45
2022-12-09T03:43:53.680Z,15.43
2022-12-09T03:46:22.409Z,17.25
2022-12-09T03:48:49.416Z,14.25
2022-12-09T03:51:23.852Z,13.60
2022-12-09T03:53:51.573Z,13.35
2022-12-09T03:56:23.252Z,14.45
2022-12-09T03:58:52.979Z,15.52
2022-12-09T04:01:21.480Z,16.98
2022-12-09T04:03:49.992Z,17.27
2022-12-09T04:06:17.264Z,19.85
2022-12-09T04:08:50.376Z,18.90
2022-12-09T04:11:17.250Z,18.45
2022-12-09T04:13:44.138Z,19.25
2022-12-09T04:16:10.998Z,20.40
2022-12-09T04:18:37.694Z,17.25
2022-12-09T04:21:09.200Z,20.90
2022-12-09T04:37:03.083Z,16.95
2022-12-09T04:39:30.794Z,21.45
2022-12-09T04:41:57.756Z,18.70
2022-12-09T04:47:15.181Z,16.92
2022-12-09T04:49:42.267Z,14.32
2022-12-09T04:52:09.360Z,15.75
2022-12-09T04:54:36.685Z,16.65
2022-12-09T04:57:03.888Z,16.80
2022-12-09T04:59:38.236Z,19.50
2022-12-09T05:02:05.184Z,17.83
2022-12-09T05:04:32.162Z,18.30
2022-12-09T05:06:59.412Z,19.13
2022-12-09T05:09:26.498Z,26.67
2022-12-09T05:11:54.348Z,21.58
2022-12-09T05:17:03.811Z,23.23
2022-12-09T05:19:31.077Z,17.85
2022-12-09T05:21:58.142Z,20.77
2022-12-09T05:24:24.987Z,16.73
2022-12-09T05:26:51.934Z,25.08
2022-12-09T05:29:35.252Z,24.33
2022-12-09T05:32:02.263Z,20.48
2022-12-09T05:34:40.343Z,23.10
2022-12-09T05:37:07.221Z,20.60
2022-12-09T05:39:34.425Z,23.75
2022-12-09T05:42:01.344Z,21.85
2022-12-09T05:44:28.516Z,21.45
2022-12-09T05:46:57.597Z,23.00
2022-12-09T05:49:25.308Z,26.95
2022-12-09T05:51:52.680Z,19.02
2022-12-09T05:54:20.123Z,20.50
2022-12-09T05:56:49.036Z,19.73
2022-12-09T05:59:24.311Z,17.45
2022-12-09T06:01:51.708Z,21.23
2022-12-09T06:04:18.710Z,22.25
2022-12-09T06:06:47.017Z,24.80
2022-12-09T06:09:14.075Z,24.52
2022-12-09T06:11:41.346Z,23.77
2022-12-09T06:16:53.164Z,28.27
2022-12-09T06:19:21.326Z,23.63
2022-12-09T06:21:48.497Z,20.38
2022-12-09T06:24:16.072Z,18.67
2022-12-09T06:26:44.310Z,18.52
2022-12-09T06:40:01.410Z,24.77
2022-12-09T06:42:28.939Z,20.98
2022-12-09T06:44:58.802Z,29.13
2022-12-09T06:50:12.689Z,25.05
2022-12-09T06:52:40.217Z,24.97
2022-12-09T06:55:08.947Z,20.65
2022-12-09T06:57:36.352Z,22.73
2022-12-09T07:00:05.608Z,20.77
2022-12-09T07:02:36.836Z,24.20
2022-12-09T07:07:38.144Z,24.05
2022-12-09T07:10:07.691Z,24.70
2022-12-09T07:12:36.554Z,24.52
2022-12-09T07:15:04.169Z,26.33
2022-12-09T07:17:31.846Z,21.88
2022-12-09T07:20:08.216Z,25.30
2022-12-09T07:22:37.292Z,25.60
2022-12-09T07:25:06.273Z,23.02
2022-12-09T07:27:33.876Z,25.65
2022-12-09T07:30:01.273Z,34.05
2022-12-09T07:32:28.411Z,23.92
2022-12-09T07:35:05.619Z,23.58
2022-12-09T07:37:34.289Z,28.08
2022-12-09T07:40:03.248Z,20.98
2022-12-09T07:45:12.481Z,37.10
2022-12-09T07:47:41.584Z,27.15
2022-12-09T07:50:10.495Z,25.80
2022-12-09T07:52:37.789Z,27.15
2022-12-09T07:55:07.807Z,21.33
2022-12-09T08:02:50.425Z,29.30
2022-12-09T08:05:19.165Z,24.67
2022-12-09T08:13:19.427Z,22.38
2022-12-09T08:15:46.477Z,23.25
2022-12-09T08:18:15.996Z,24.25
2022-12-09T08:20:45.284Z,21.25
2022-12-09T08:23:15.827Z,21.83
2022-12-09T08:37:17.592Z,22.52
2022-12-09T08:39:44.899Z,22.65
2022-12-09T08:42:12.176Z,17.90
2022-12-09T08:44:40.831Z,18.75
2022-12-09T08:47:08.374Z,21.80
2022-12-09T09:00:34.449Z,15.93
2022-12-09T09:03:01.958Z,17.60
2022-12-09T09:05:32.382Z,18.33
2022-12-09T09:08:00.973Z,22.40
2022-12-09T09:19:19.529Z,22.05
2022-12-09T09:21:49.891Z,23.80
2022-12-09T09:24:19.863Z,21.65
2022-12-09T09:26:50.083Z,20.70
2022-12-09T09:29:20.674Z,21.80
2022-12-09T09:31:56.321Z,20.85
2022-12-09T09:45:21.507Z,20.42
2022-12-09T09:48:02.915Z,20.50
2022-12-09T09:50:34.656Z,21.75
2022-12-09T09:53:20.195Z,17.23
2022-12-09T09:55:51.146Z,20.10
2022-12-09T10:07:20.143Z,24.23
2022-12-09T10:09:57.664Z,25.10
2022-12-09T10:12:24.871Z,17.60
2022-12-09T10:14:59.405Z,17.38
2022-12-09T10:17:35.320Z,20.27
2022-12-09T10:20:08.386Z,25.77
2022-12-09T10:22:43.988Z,19.33
2022-12-09T10:25:24.851Z,21.45
2022-12-09T10:28:14.265Z,21.20
2022-12-09T10:30:44.510Z,24.05
2022-12-09T10:33:15.949Z,29.67
2022-12-09T10:35:43.258Z,27.25
2022-12-09T10:38:18.370Z,24.80
2022-12-09T10:40:48.135Z,21.40
2022-12-09T10:43:38.945Z,26.85
2022-12-09T10:48:56.388Z,27.67
2022-12-09T10:51:30.053Z,27.67
2022-12-09T10:54:01.841Z,27.90
2022-12-09T10:59:30.006Z,26.50
2022-12-09T11:01:56.949Z,30.65
2022-12-09T11:04:45.109Z,27.75
2022-12-09T11:07:11.957Z,32.38
2022-12-09T11:09:40.618Z,25.45
2022-12-09T11:12:34.788Z,23.17
2022-12-09T11:15:25.522Z,24.88
2022-12-09T11:17:58.932Z,23.17
2022-12-09T11:20:29.373Z,28.42
2022-12-09T11:23:16.020Z,27.88
2022-12-09T11:26:00.440Z,34.05
2022-12-09T11:28:32.837Z,28.88
2022-12-09T11:33:50.129Z,26.73
2022-12-09T11:36:30.762Z,27.60
2022-12-09T11:39:36.938Z,23.00
2022-12-09T11:42:20.636Z,26.13
2022-12-09T11:44:59.495Z,27.38
2022-12-09T11:50:31.418Z,25.85
2022-12-09T11:53:11.327Z,26.67
2022-12-09T11:55:44.144Z,26.48
2022-12-09T11:58:27.964Z,27.00
2022-12-09T12:01:01.684Z,21.67
2022-12-09T12:03:37.389Z,26.15
2022-12-09T12:06:07.589Z,26.33
2022-12-09T12:08:40.681Z,22.73
2022-12-09T12:11:17.376Z,23.85
2022-12-09T12:13:49.418Z,17.30
2022-12-09T12:16:45.956Z,18.98
2022-12-09T12:19:12.500Z,17.13
2022-12-09T12:21:49.728Z,20.63
2022-12-09T12:24:27.064Z,22.05
2022-12-09T12:26:59.679Z,18.52
2022-12-09T12:29:54.475Z,16.88
2022-12-09T12:33:17.948Z,20.48
2022-12-09T12:36:01.531Z,18.00
2022-12-09T12:38:54.838Z,18.17
2022-12-09T12:41:21.988Z,16.95
2022-12-09T12:44:26.075Z,18.98
2022-12-09T12:47:01.819Z,15.43
2022-12-09T12:49:55.305Z,23.85
2022-12-09T12:52:55.566Z,18.75
2022-12-09T12:56:00.680Z,20.02
2022-12-09T12:58:29.840Z,24.00
2022-12-09T13:01:05.542Z,17.73
2022-12-09T13:03:42.685Z,19.75
2022-12-09T13:06:14.734Z,20.33
2022-12-09T13:09:02.813Z,19.40
2022-12-09T13:11:32.279Z,21.75
2022-12-09T13:14:09.953Z,18.05
2022-12-09T13:16:40.242Z,21.42
2022-12-09T13:19:08.270Z,21.13
2022-12-09T13:21:35.115Z,19.92
2022-12-09T13:24:27.905Z,19.45
2022-12-09T13:27:19.413Z,17.35
2022-12-09T13:29:54.840Z,22.20
2022-12-09T13:32:39.900Z,19.83
2022-12-09T13:35:33.417Z,18.55
2022-12-09T13:38:01.132Z,21.02
2022-12-09T13:40:35.816Z,18.65
2022-12-09T13:43:12.989Z,18.10
2022-12-09T13:45:42.907Z,20.60
2022-12-09T13:48:16.953Z,20.08
2022-12-09T13:51:00.268Z,23.98
2022-12-09T13:53:35.239Z,20.65
2022-12-09T13:56:08.721Z,19.63
2022-12-09T13:58:41.753Z,22.98
2022-12-09T14:01:20.602Z,18.73
2022-12-09T14:04:10.264Z,20.33
2022-12-09T14:20:52.691Z,21.35
2022-12-09T14:23:19.537Z,21.35
2022-12-09T14:29:04.240Z,18.55
2022-12-09T14:31:47.990Z,20.75
2022-12-09T14:34:28.330Z,22.52
2022-12-09T14:48:11.175Z,25.08
2022-12-09T14:50:38.782Z,22.83
2022-12-09T14:53:10.991Z,20.83
2022-12-09T14:55:40.702Z,20.70
2022-12-09T15:00:41.748Z,20.02
2022-12-09T15:03:45.279Z,17.60
2022-12-09T15:06:30.737Z,20.10
2022-12-09T15:08:59.813Z,17.17
2022-12-09T15:11:31.254Z,18.83
2022-12-09T15:14:20.100Z,15.35
2022-12-09T15:16:50.463Z,19.42
2022-12-09T15:19:51.048Z,21.00
2022-12-09T15:22:06.754Z,28.48
2022-12-09T15:24:49.249Z,27.00
2022-12-09T15:27:23.001Z,38.63
2022-12-09T15:29:50.039Z,29.30
2022-12-09T15:32:26.400Z,31.25
2022-12-09T15:34:54.358Z,33.65
2022-12-09T15:37:27.513Z,38.05
2022-12-09T15:40:03.581Z,36.53
2022-12-09T15:42:32.378Z,37.97
2022-12-09T15:50:57.000Z,32.20
2022-12-09T15:53:33.511Z,37.40
2022-12-09T15:56:15.499Z,43.25
2022-12-09T15:58:48.208Z,38.63
2022-12-09T16:01:22.617Z,35.13
2022-12-09T16:03:51.338Z,30.58
2022-12-09T16:06:21.526Z,33.50
2022-12-09T16:11:44.328Z,39.55
2022-12-09T16:14:12.010Z,35.50
2022-12-09T16:16:49.466Z,39.13
2022-12-09T16:19:31.071Z,40.72
2022-12-09T16:22:25.812Z,42.38
2022-12-09T16:25:22.053Z,34.10
2022-12-09T16:27:51.888Z,34.22
2022-12-09T16:30:21.563Z,48.47
2022-12-09T16:44:42.809Z,47.10
2022-12-09T16:47:16.192Z,43.63
2022-12-09T16:49:46.133Z,42.78
2022-12-09T16:52:23.383Z,41.50
2022-12-09T16:54:50.702Z,48.80
2022-12-09T16:57:21.393Z,53.45
2022-12-09T16:59:48.054Z,46.78
2022-12-09T17:02:40.235Z,44.60
2022-12-09T17:05:07.762Z,46.38
2022-12-09T17:07:34.637Z,46.70
2022-12-09T17:10:01.301Z,53.58
2022-12-09T17:12:28.050Z,53.00
2022-12-09T17:17:36.266Z,50.25
2022-12-09T17:20:02.974Z,58.67
2022-12-09T17:22:29.713Z,54.25
2022-12-09T17:24:56.380Z,50.20
2022-12-09T17:27:23.194Z,51.83
2022-12-09T17:35:27.155Z,49.15
2022-12-09T17:37:54.012Z,48.55
2022-12-09T17:40:20.641Z,51.42
2022-12-09T17:42:47.227Z,52.58
2022-12-09T17:45:13.868Z,53.42
2022-12-09T17:50:23.831Z,59.22
2022-12-09T17:52:50.582Z,55.40
2022-12-09T17:55:17.363Z,53.65
2022-12-09T17:57:44.123Z,54.40
2022-12-09T18:00:11.783Z,55.75
2022-12-09T18:10:45.206Z,59.88
2022-12-09T18:13:11.867Z,63.97
2022-12-09T18:15:38.535Z,60.30
2022-12-09T18:18:05.321Z,59.15
2022-12-09T18:23:15.979Z,59.40
2022-12-09T18:25:42.728Z,52.00
2022-12-09T18:28:09.394Z,64.60
2022-12-09T18:30:38.778Z,54.67
2022-12-09T18:33:05.659Z,58.25
2022-12-09T18:38:12.941Z,62.97
2022-12-09T18:41:00.604Z,62.58
2022-12-09T18:43:34.496Z,64.47
2022-12-09T18:46:05.857Z,72.35
2022-12-09T18:48:32.840Z,68.07
2022-12-09T18:50:59.473Z,58.65
2022-12-09T18:56:08.735Z,61.78
2022-12-09T18:59:04.727Z,62.30
2022-12-09T19:01:25.916Z,68.63
2022-12-09T19:03:54.262Z,60.58
2022-12-09T19:06:22.401Z,66.50
2022-12-09T19:08:54.074Z,74.28
2022-12-09T19:14:11.198Z,72.33
2022-12-09T19:16:38.175Z,72.57
2022-12-09T19:19:09.408Z,62.25
2022-12-09T19:21:37.441Z,73.47
2022-12-09T19:24:04.447Z,64.03
2022-12-09T19:26:33.331Z,66.90
2022-12-09T19:29:02.849Z,70.47
2022-12-09T19:31:38.236Z,69.32
2022-12-09T19:34:08.011Z,77.90
2022-12-09T19:36:35.029Z,77.22
2022-12-09T19:39:03.133Z,82.18
2022-12-09T19:41:29.737Z,76.50
2022-12-09T19:43:57.607Z,67.53
2022-12-09T19:46:26.444Z,74.60
2022-12-09T19:48:53.741Z,77.40
2022-12-09T19:51:20.997Z,81.93
2022-12-09T19:53:48.252Z,71.75
2022-12-09T19:56:20.508Z,78.30
2022-12-09T19:58:47.655Z,68.97
2022-12-09T20:01:19.281Z,69.03
2022-12-09T20:03:48.446Z,70.63
2022-12-09T20:06:20.127Z,74.75
2022-12-09T20:08:47.532Z,81.28
2022-12-09T20:11:21.631Z,82.18
2022-12-09T20:13:49.025Z,66.40
2022-12-09T20:16:19.119Z,67.47
2022-12-09T20:18:48.381Z,79.65
2022-12-09T20:21:17.156Z,79.75
2022-12-09T20:23:44.382Z,80.25
2022-12-09T20:28:56.170Z,87.28
2022-12-09T20:31:25.528Z,84.15
2022-12-09T20:33:56.811Z,89.07
2022-12-09T20:36:25.297Z,81.68
2022-12-09T20:38:54.604Z,79.55
2022-12-09T20:41:24.085Z,81.43
2022-12-09T20:43:58.984Z,82.85
2022-12-09T20:46:28.643Z,84.88
2022-12-09T20:48:56.005Z,83.38
2022-12-09T20:51:25.743Z,71.60
2022-12-09T20:53:53.233Z,76.15
2022-12-09T20:56:21.379Z,79.22
2022-12-09T20:58:49.502Z,89.00
2022-12-09T21:01:23.716Z,73.78
2022-12-09T21:03:51.538Z,79.30
2022-12-09T21:06:20.571Z,70.15
2022-12-09T21:08:47.320Z,72.10
2022-12-09T21:13:50.184Z,66.10
2022-12-09T21:16:23.282Z,63.72
2022-12-09T21:18:51.659Z,60.83
2022-12-09T21:21:19.493Z,57.28
2022-12-09T21:23:47.978Z,54.60
2022-12-09T21:28:49.975Z,56.28
2022-12-09T21:31:22.967Z,56.03
2022-12-09T21:33:51.360Z,52.83
2022-12-09T21:36:21.370Z,49.53
2022-12-09T21:38:48.155Z,55.45
2022-12-09T21:41:17.390Z,45.75
2022-12-09T21:43:44.966Z,52.60
2022-12-09T21:46:18.947Z,48.13
2022-12-09T21:48:51.814Z,48.42
2022-12-09T21:51:21.092Z,52.20
2022-12-09T21:53:48.609Z,50.47
2022-12-09T21:56:18.446Z,59.45
2022-12-09T22:01:35.757Z,55.17
2022-12-09T22:04:05.131Z,61.05
2022-12-09T22:06:31.914Z,56.45
2022-12-09T22:09:00.011Z,62.40
2022-12-09T22:11:29.052Z,56.40
2022-12-09T22:16:31.864Z,63.08
2022-12-09T22:19:00.462Z,66.45
2022-12-09T22:21:30.632Z,72.13
2022-12-09T22:24:01.009Z,74.90
2022-12-09T22:26:28.427Z,80.43
2022-12-09T22:34:26.830Z,79.68
2022-12-09T22:36:55.222Z,81.78
2022-12-09T22:39:22.910Z,79.75
2022-12-09T22:41:52.829Z,76.85
2022-12-09T22:44:20.986Z,80.38
2022-12-09T22:46:54.160Z,78.20
2022-12-09T22:49:21.922Z,88.47
2022-12-09T22:51:50.652Z,82.80
2022-12-09T22:54:18.027Z,81.97
2022-12-09T22:56:44.863Z,77.50
2022-12-09T22:59:13.554Z,91.53
2022-12-09T23:04:18.002Z,86.95
2022-12-09T23:06:45.760Z,87.07
2022-12-09T23:09:21.337Z,88.65
2022-12-09T23:11:48.684Z,90.38
2022-12-09T23:14:15.738Z,88.05
2022-12-09T23:16:51.396Z,77.70
2022-12-09T23:19:18.153Z,88.85
2022-12-09T23:21:44.829Z,82.28
2022-12-09T23:24:22.618Z,80.63
2022-12-09T23:26:51.675Z,82.22
2022-12-09T23:29:18.579Z,81.18
2022-12-09T23:31:45.380Z,79.13
2022-12-09T23:34:13.478Z,86.60
2022-12-09T23:36:42.253Z,86.60
2022-12-09T23:39:12.279Z,78.43
2022-12-09T23:41:39.986Z,80.13
2022-12-09T23:44:18.044Z,89.30
2022-12-09T23:46:45.290Z,72.05
2022-12-09T23:49:12.103Z,77.00
2022-12-09T23:51:43.291Z,91.60
2022-12-09T23:54:11.434Z,97.05
2022-12-09T23:56:40.281Z,88.63
2022-12-09T23:59:08.884Z,93.45
